Tributaries of Elbe river

river Ploučnice - water gauge Benešov nad Ploučnicí

Date and time (UTC) H (cm) Q (m³/s)
22. 4. 2024 05:00 79 4.8
22. 4. 2024 04:00 79 5
22. 4. 2024 03:00 79 5
22. 4. 2024 02:00 77 4
22. 4. 2024 01:00 78 5
22. 4. 2024 00:00 80 5
21. 4. 2024 23:00 78 5
21. 4. 2024 22:00 79 5
21. 4. 2024 21:00 76 4
21. 4. 2024 20:00 78 5
21. 4. 2024 19:00 79 5
21. 4. 2024 18:00 81 5
21. 4. 2024 17:00 73 3

H - water level, Q - discharge

river Ohře - water gauge Louny

Date and time (UTC) H (cm) Q (m³/s)
22. 4. 2024 05:00 188 16.9
22. 4. 2024 04:00 188 17
22. 4. 2024 03:00 188 17
22. 4. 2024 02:00 188 17
22. 4. 2024 01:00 188 17
22. 4. 2024 00:00 188 17
21. 4. 2024 23:00 189 17
21. 4. 2024 22:00 189 17
21. 4. 2024 21:00 189 17
21. 4. 2024 20:00 189 17
21. 4. 2024 19:00 189 17
21. 4. 2024 18:00 189 17
21. 4. 2024 17:00 189 17

H - water level, Q - discharge

Vraňany

Date and time (UTC) H (cm) Q (m³/s)
22. 4. 2024 05:00 37 75.5
22. 4. 2024 04:00 38 77
22. 4. 2024 03:00 39 78
22. 4. 2024 02:00 37 76
22. 4. 2024 01:00 31 70
22. 4. 2024 00:00 37 76
21. 4. 2024 23:00 37 76
21. 4. 2024 22:00 38 77
21. 4. 2024 21:00 41 80
21. 4. 2024 20:00 36 75
21. 4. 2024 19:00 28 67
21. 4. 2024 18:00 35 74
21. 4. 2024 17:00 28 67

H - water level, Q - discharge

river Jizera - water gauge Předměřice

Date and time (UTC) H (cm) Q (m³/s)
22. 4. 2024 05:00 166 22.6
22. 4. 2024 04:00 166 23
22. 4. 2024 03:00 167 23
22. 4. 2024 02:00 162 21
22. 4. 2024 01:00 158 19
22. 4. 2024 00:00 154 18
21. 4. 2024 23:00 151 17
21. 4. 2024 22:00 144 14
21. 4. 2024 21:00 146 15
21. 4. 2024 20:00 146 15
21. 4. 2024 19:00 152 17
21. 4. 2024 18:00 153 17
21. 4. 2024 17:00 141 13

H - water level, Q - discharge

river Cidlina - water gauge Sány

Date and time (UTC) H (cm) Q (m³/s)
22. 4. 2024 05:00 42 2.3
22. 4. 2024 04:00 43 2
22. 4. 2024 03:00 42 2
22. 4. 2024 02:00 43 2
22. 4. 2024 01:00 41 2
22. 4. 2024 00:00 43 2
21. 4. 2024 23:00 41 2
21. 4. 2024 22:00 43 2
21. 4. 2024 21:00 44 3
21. 4. 2024 20:00 44 3
21. 4. 2024 19:00 44 3
21. 4. 2024 18:00 44 3
21. 4. 2024 17:00 44 3

H - water level, Q - discharge

river Orlice - water gauge Týniště nad Orlicí

Date and time (UTC) H (cm) Q (m³/s)
22. 4. 2024 05:00 97 13.2
22. 4. 2024 04:00 97 13
22. 4. 2024 03:00 96 13
22. 4. 2024 02:00 96 13
22. 4. 2024 01:00 97 13
22. 4. 2024 00:00 97 13
21. 4. 2024 23:00 97 13
21. 4. 2024 22:00 98 14
21. 4. 2024 21:00 99 14
21. 4. 2024 20:00 99 14
21. 4. 2024 19:00 100 14
21. 4. 2024 18:00 100 14
21. 4. 2024 17:00 100 14

H - water level, Q - discharge
Source data
Labe Basin Vltava Basin Povodí Moravy ČHMÚ
Po vodě ekologicky, levně a v pohodě
backgroung on backgroung off